Time;durP1;ratioP1;P1;durP2;ratioP2;P2;SDS_P1;SDS_P2;PMS_P1;PMS_P2;Temp;Humidity;BMP_temperature;BMP_pressure;BME280_temperature;BME280_humidity;BME280_pressure;Samples;Min_cycle;Max_cycle;Signal;HPM_P1;HPM_P2
2022/05/18 00:02:03;;;;;;;16.47;11.60;;;17.90;99.90;;;;;;5018624;28;20290;-79
2022/05/18 00:04:30;;;;;;;15.43;10.57;;;17.90;99.90;;;;;;5025375;28;20201;-79
2022/05/18 00:06:57;;;;;;;18.93;11.87;;;17.80;99.90;;;;;;5024691;28;20205;-79
2022/05/18 00:09:24;;;;;;;18.03;10.00;;;17.80;99.90;;;;;;5026198;28;20221;-78
2022/05/18 00:11:51;;;;;;;15.83;11.70;;;17.80;99.90;;;;;;5022559;28;20237;-79
2022/05/18 00:14:17;;;;;;;18.20;11.60;;;17.80;99.90;;;;;;5018303;28;20256;-80
2022/05/18 00:16:45;;;;;;;17.27;12.93;;;17.70;99.90;;;;;;5018885;28;20326;-78
2022/05/18 00:19:12;;;;;;;23.63;13.40;;;17.70;99.90;;;;;;5037130;28;20206;-80
2022/05/18 00:21:41;;;;;;;19.53;12.77;;;17.60;99.90;;;;;;5027622;28;20214;-79
2022/05/18 00:24:08;;;;;;;21.27;12.03;;;17.50;99.90;;;;;;5027725;28;20222;-79
2022/05/18 00:26:35;;;;;;;17.97;11.63;;;17.50;99.90;;;;;;5023886;28;20198;-79
2022/05/18 00:29:02;;;;;;;18.43;12.70;;;17.50;99.90;;;;;;5019129;28;20288;-77
2022/05/18 00:31:33;;;;;;;22.20;13.03;;;17.50;99.90;;;;;;5024257;28;20641;-77
2022/05/18 00:34:00;;;;;;;20.30;13.77;;;17.40;99.90;;;;;;5038694;28;20248;-78
2022/05/18 00:36:26;;;;;;;19.83;13.50;;;17.40;99.90;;;;;;5024921;28;20475;-80
2022/05/18 00:38:53;;;;;;;21.97;14.17;;;17.30;99.90;;;;;;5042546;28;20580;-79
2022/05/18 00:41:23;;;;;;;22.23;14.23;;;17.30;99.90;;;;;;5017665;28;20221;-78
2022/05/18 00:43:51;;;;;;;18.00;12.07;;;17.30;99.90;;;;;;5023557;28;20280;-78
2022/05/18 00:46:18;;;;;;;22.23;13.00;;;17.20;99.90;;;;;;5041873;28;20212;-78
2022/05/18 00:48:52;;;;;;;25.03;14.47;;;17.10;99.90;;;;;;5023417;28;20558;-78
2022/05/18 00:51:38;;;;;;;22.70;16.13;;;17.10;99.90;;;;;;5042383;28;20233;-78
2022/05/18 00:54:10;;;;;;;21.40;13.30;;;17.00;99.90;;;;;;5027498;28;20216;-78
2022/05/18 00:56:49;;;;;;;19.23;13.57;;;17.00;99.90;;;;;;5028392;28;20304;-78
2022/05/18 00:59:24;;;;;;;23.07;15.37;;;17.00;99.90;;;;;;5021405;28;20259;-78
2022/05/18 01:01:52;;;;;;;23.67;15.13;;;16.90;99.90;;;;;;5032814;28;20217;-78
2022/05/18 01:04:19;;;;;;;20.83;14.83;;;16.90;99.90;;;;;;5015679;28;20210;-79
2022/05/18 01:07:02;;;;;;;26.83;16.10;;;16.80;99.90;;;;;;5023987;28;20259;-79
2022/05/18 01:09:37;;;;;;;21.10;15.30;;;16.80;99.90;;;;;;5042022;28;20237;-78
2022/05/18 01:12:05;;;;;;;26.53;17.07;;;16.80;99.90;;;;;;5029215;28;20341;-78
2022/05/18 01:14:39;;;;;;;20.40;13.53;;;16.70;99.90;;;;;;5024535;28;20206;-78
2022/05/18 01:17:06;;;;;;;20.90;13.93;;;16.70;99.90;;;;;;5029283;28;20724;-78
2022/05/18 01:19:35;;;;;;;25.33;15.67;;;16.70;99.90;;;;;;5044157;28;20209;-78
2022/05/18 01:22:42;;;;;;;21.30;15.63;;;16.60;99.90;;;;;;5028390;28;20509;-79
2022/05/18 01:25:43;;;;;;;26.87;16.10;;;16.70;99.90;;;;;;5026354;28;20217;-78
2022/05/18 01:28:11;;;;;;;22.40;15.90;;;16.60;99.90;;;;;;5043508;28;20209;-78
2022/05/18 01:30:42;;;;;;;26.83;17.10;;;16.50;99.90;;;;;;5027233;28;20216;-78
2022/05/18 01:33:12;;;;;;;32.03;18.13;;;16.40;99.90;;;;;;5029362;28;20706;-78
2022/05/18 01:35:43;;;;;;;25.40;17.43;;;16.40;99.90;;;;;;5027982;28;20258;-78
2022/05/18 01:38:14;;;;;;;26.77;17.57;;;16.40;99.90;;;;;;5028992;28;20213;-77
2022/05/18 01:40:41;;;;;;;27.67;17.97;;;16.40;99.90;;;;;;5041323;28;20221;-78
2022/05/18 01:43:11;;;;;;;28.77;19.50;;;16.40;99.90;;;;;;5026915;28;20314;-78
2022/05/18 01:45:38;;;;;;;24.67;17.60;;;16.40;99.90;;;;;;5035864;28;20209;-78
2022/05/18 01:48:10;;;;;;;27.97;18.57;;;16.50;99.90;;;;;;5044221;28;20233;-78
2022/05/18 01:50:38;;;;;;;26.47;18.27;;;16.40;99.90;;;;;;5038516;28;20217;-78
2022/05/18 01:53:05;;;;;;;26.00;18.47;;;16.40;99.90;;;;;;5027353;28;20299;-78
2022/05/18 01:55:33;;;;;;;28.57;18.37;;;16.40;99.90;;;;;;5026341;28;20374;-79
2022/05/18 01:58:01;;;;;;;27.57;19.37;;;16.40;99.90;;;;;;5043601;28;20588;-79
2022/05/18 02:00:29;;;;;;;26.20;18.87;;;16.40;99.90;;;;;;5028301;28;20260;-79
2022/05/18 02:02:57;;;;;;;26.30;18.63;;;16.40;99.90;;;;;;5028702;28;20201;-77
2022/05/18 02:05:24;;;;;;;30.17;20.80;;;16.60;99.90;;;;;;5038082;28;20202;-78
2022/05/18 02:07:51;;;;;;;26.17;18.50;;;16.40;99.90;;;;;;5027411;28;20248;-77
2022/05/18 02:10:19;;;;;;;31.57;19.60;;;16.40;99.90;;;;;;5028336;28;20232;-78
2022/05/18 02:12:46;;;;;;;32.00;20.07;;;16.40;99.90;;;;;;5025857;28;20240;-78
2022/05/18 02:15:13;;;;;;;30.10;20.43;;;16.40;99.90;;;;;;5035044;28;20245;-78
2022/05/18 02:17:41;;;;;;;32.00;20.90;;;16.40;99.90;;;;;;5023368;28;20203;-77
2022/05/18 02:20:09;;;;;;;29.50;19.27;;;16.40;99.90;;;;;;5018896;28;20271;-78
2022/05/18 02:22:36;;;;;;;29.63;18.90;;;16.40;99.90;;;;;;5027566;28;20321;-78
2022/05/18 02:25:03;;;;;;;32.20;20.80;;;16.40;99.90;;;;;;5027626;28;20636;-78
2022/05/18 02:27:31;;;;;;;33.87;22.47;;;16.50;99.90;;;;;;5034301;28;20198;-78
2022/05/18 02:29:57;;;;;;;35.17;22.90;;;16.50;99.90;;;;;;5043323;28;20637;-77
2022/05/18 02:32:25;;;;;;;32.53;22.53;;;16.40;99.90;;;;;;5027599;28;20240;-79
2022/05/18 02:34:53;;;;;;;36.93;23.77;;;16.50;99.90;;;;;;5039603;28;20522;-77
2022/05/18 02:37:20;;;;;;;39.60;23.77;;;16.40;99.90;;;;;;5026530;28;20673;-78
2022/05/18 02:39:47;;;;;;;34.30;23.67;;;16.40;99.90;;;;;;5028376;28;20256;-78
2022/05/18 02:42:14;;;;;;;38.20;24.73;;;16.40;99.90;;;;;;5037161;28;20261;-77
2022/05/18 02:44:41;;;;;;;39.37;25.83;;;16.40;99.90;;;;;;5025151;28;20733;-78
2022/05/18 02:47:08;;;;;;;37.53;24.10;;;16.40;99.90;;;;;;5043546;28;20618;-79
2022/05/18 02:49:34;;;;;;;36.97;23.17;;;16.30;99.90;;;;;;5025920;28;20260;-78
2022/05/18 02:52:01;;;;;;;38.57;24.03;;;16.30;99.90;;;;;;5042559;28;20233;-78
2022/05/18 02:57:14;;;;;;;34.63;22.70;;;16.20;99.90;;;;;;5023699;28;20259;-78
2022/05/18 02:59:43;;;;;;;33.33;21.53;;;16.10;99.90;;;;;;5025896;28;20213;-78
2022/05/18 03:02:09;;;;;;;34.40;22.80;;;16.20;99.90;;;;;;5027783;28;20216;-80
2022/05/18 03:04:36;;;;;;;36.83;24.00;;;16.10;99.90;;;;;;5021273;28;20223;-79
2022/05/18 03:07:04;;;;;;;36.07;24.10;;;16.20;99.90;;;;;;5025861;28;20674;-78
2022/05/18 03:09:31;;;;;;;33.00;22.17;;;16.10;99.90;;;;;;5039136;28;20233;-78
2022/05/18 03:11:58;;;;;;;31.77;20.97;;;16.10;99.90;;;;;;5026339;28;20232;-79
2022/05/18 03:14:25;;;;;;;36.93;22.80;;;16.00;99.90;;;;;;5024068;28;20224;-79
2022/05/18 03:16:52;;;;;;;31.80;22.23;;;16.00;99.90;;;;;;5026933;28;20205;-78
2022/05/18 03:19:19;;;;;;;35.57;23.33;;;16.00;99.90;;;;;;5041703;28;20239;-78
2022/05/18 03:24:31;;;;;;;41.23;22.80;;;16.10;99.90;;;;;;5023591;28;20693;-81
2022/05/18 03:26:58;;;;;;;37.13;23.67;;;15.90;99.90;;;;;;5025537;28;20202;-77
2022/05/18 03:29:26;;;;;;;34.73;23.80;;;15.90;99.90;;;;;;5023724;28;20750;-78
2022/05/18 03:31:53;;;;;;;31.77;21.93;;;15.90;99.90;;;;;;5026209;28;20267;-79
2022/05/18 03:34:20;;;;;;;32.80;22.17;;;15.90;99.90;;;;;;5022529;28;20214;-77
2022/05/18 03:36:47;;;;;;;34.57;23.27;;;15.90;99.90;;;;;;5041665;28;20623;-78
2022/05/18 03:39:15;;;;;;;30.23;21.70;;;15.90;99.90;;;;;;5025387;28;20231;-78
2022/05/18 03:41:43;;;;;;;30.30;19.57;;;15.90;99.90;;;;;;5022440;28;20490;-78
2022/05/18 03:44:10;;;;;;;33.00;22.37;;;15.80;99.90;;;;;;5024674;28;20748;-79
2022/05/18 03:46:37;;;;;;;30.83;21.93;;;15.90;99.90;;;;;;5026095;28;20210;-77
2022/05/18 03:49:04;;;;;;;30.07;19.83;;;15.90;99.90;;;;;;5026312;28;20250;-79
2022/05/18 03:51:31;;;;;;;37.23;21.83;;;15.80;99.90;;;;;;5033493;28;20615;-77
2022/05/18 03:53:59;;;;;;;34.03;21.70;;;15.80;99.90;;;;;;5041710;28;20226;-77
2022/05/18 03:56:26;;;;;;;34.67;23.80;;;15.80;99.90;;;;;;5024256;28;20210;-78
2022/05/18 03:58:53;;;;;;;36.43;23.63;;;15.80;99.90;;;;;;5039671;28;20210;-78
2022/05/18 04:01:20;;;;;;;38.93;25.57;;;15.80;99.90;;;;;;5041477;28;20216;-77
2022/05/18 04:03:48;;;;;;;34.37;25.87;;;15.80;99.90;;;;;;5017797;28;20205;-78
2022/05/18 04:06:15;;;;;;;34.93;24.77;;;15.80;99.90;;;;;;5020733;28;20210;-77
2022/05/18 04:08:43;;;;;;;38.80;25.60;;;15.90;99.90;;;;;;5025216;28;20220;-78
2022/05/18 04:11:11;;;;;;;36.33;25.40;;;15.90;99.90;;;;;;5025192;28;20226;-78
2022/05/18 04:13:39;;;;;;;39.80;26.03;;;15.90;99.90;;;;;;5022730;28;20697;-78
2022/05/18 04:16:06;;;;;;;35.77;25.53;;;16.00;99.90;;;;;;5022710;28;20227;-80
2022/05/18 04:18:33;;;;;;;37.33;24.87;;;16.00;99.90;;;;;;5021382;28;20240;-77
2022/05/18 04:21:00;;;;;;;36.73;24.93;;;16.00;99.90;;;;;;5045918;28;20601;-78
2022/05/18 04:23:27;;;;;;;34.50;23.50;;;16.00;99.90;;;;;;5028388;28;20202;-78
2022/05/18 04:25:54;;;;;;;31.70;24.53;;;16.10;99.90;;;;;;5028246;28;20748;-77
2022/05/18 04:28:20;;;;;;;34.50;24.93;;;16.10;99.90;;;;;;5045343;28;20664;-78
2022/05/18 04:30:48;;;;;;;37.27;23.87;;;16.20;99.90;;;;;;5027424;28;20210;-78
2022/05/18 04:33:18;;;;;;;36.53;23.20;;;16.20;99.90;;;;;;5027453;28;20229;-78
2022/05/18 04:35:48;;;;;;;32.37;22.20;;;16.30;99.90;;;;;;5025118;28;20736;-79
2022/05/18 04:38:15;;;;;;;34.57;22.37;;;16.30;99.90;;;;;;5024704;28;20222;-78
2022/05/18 04:40:46;;;;;;;31.13;21.67;;;16.40;99.90;;;;;;5025142;28;20222;-78
2022/05/18 04:43:17;;;;;;;27.60;20.43;;;16.40;99.90;;;;;;5026623;28;20229;-79
2022/05/18 04:45:47;;;;;;;28.13;21.47;;;16.40;99.90;;;;;;5025548;28;20275;-77
2022/05/18 04:48:17;;;;;;;30.80;20.90;;;16.50;99.90;;;;;;5019674;28;20211;-77
2022/05/18 04:50:47;;;;;;;26.27;19.33;;;16.50;99.90;;;;;;5023171;28;20709;-77
2022/05/18 04:53:15;;;;;;;29.37;19.47;;;16.60;99.90;;;;;;5040178;28;20640;-77
2022/05/18 04:55:42;;;;;;;22.93;19.17;;;16.70;99.90;;;;;;5040520;28;20238;-78
2022/05/18 04:58:09;;;;;;;24.27;18.37;;;16.70;99.90;;;;;;5023612;28;20205;-78
2022/05/18 05:00:37;;;;;;;24.30;18.47;;;16.70;99.90;;;;;;5026353;28;20662;-79
2022/05/18 05:03:04;;;;;;;25.40;18.37;;;16.90;99.90;;;;;;5025043;28;20649;-78
2022/05/18 05:05:31;;;;;;;22.53;16.80;;;17.00;99.90;;;;;;5044816;28;20206;-77
2022/05/18 05:07:59;;;;;;;21.67;16.57;;;17.20;99.90;;;;;;5028527;28;20206;-78
2022/05/18 05:10:26;;;;;;;22.67;16.57;;;17.40;99.90;;;;;;5032743;28;20228;-77
2022/05/18 05:12:52;;;;;;;20.53;15.83;;;17.60;99.90;;;;;;5022801;28;20229;-78
2022/05/18 05:15:19;;;;;;;20.73;15.10;;;17.80;99.90;;;;;;5037255;28;20645;-78
2022/05/18 05:17:47;;;;;;;18.55;12.95;;;17.90;99.90;;;;;;5046292;28;20674;-78
2022/05/18 05:20:14;;;;;;;18.63;12.77;;;18.20;99.90;;;;;;5027096;28;20670;-78
2022/05/18 05:22:41;;;;;;;15.48;11.73;;;18.30;99.90;;;;;;5027456;28;20232;-77
2022/05/18 05:25:09;;;;;;;17.90;12.57;;;18.40;99.90;;;;;;5031734;28;20206;-78
2022/05/18 05:27:36;;;;;;;18.35;11.73;;;18.50;99.90;;;;;;5022761;28;20449;-78
2022/05/18 05:30:04;;;;;;;16.73;11.10;;;18.60;99.90;;;;;;5021485;28;20253;-76
2022/05/18 05:32:32;;;;;;;16.63;11.70;;;18.70;99.90;;;;;;5022233;28;20233;-78
2022/05/18 05:35:00;;;;;;;17.25;12.18;;;18.70;99.90;;;;;;5023030;28;20287;-78
2022/05/18 05:37:27;;;;;;;16.65;10.95;;;18.80;99.90;;;;;;5043929;28;20213;-78
2022/05/18 05:39:55;;;;;;;14.52;10.73;;;19.20;99.90;;;;;;5038804;28;20234;-79
2022/05/18 05:42:23;;;;;;;13.75;9.77;;;19.80;99.90;;;;;;5027778;28;20206;-78
2022/05/18 05:44:51;;;;;;;13.18;9.38;;;20.60;99.90;;;;;;5027378;28;20248;-77
2022/05/18 05:47:18;;;;;;;12.98;9.77;;;21.60;99.90;;;;;;5025586;28;20220;-78
2022/05/18 05:49:45;;;;;;;13.43;9.57;;;22.40;99.90;;;;;;5022240;28;20228;-78
2022/05/18 05:52:12;;;;;;;14.65;9.63;;;23.20;99.90;;;;;;5020997;28;20217;-79
2022/05/18 05:54:39;;;;;;;14.88;8.65;;;24.20;99.90;;;;;;5027509;28;20222;-81
2022/05/18 05:57:07;;;;;;;12.95;8.85;;;25.00;99.90;;;;;;5027790;28;20209;-76
2022/05/18 05:59:36;;;;;;;12.68;8.70;;;25.40;99.90;;;;;;5018737;28;20261;-77
2022/05/18 06:02:07;;;;;;;11.77;8.93;;;26.00;99.90;;;;;;5027662;28;20642;-80
2022/05/18 06:04:36;;;;;;;11.50;8.48;;;26.50;99.90;;;;;;5024710;28;20228;-80
2022/05/18 06:07:04;;;;;;;10.55;7.43;;;27.10;99.90;;;;;;5027098;28;20577;-81
2022/05/18 06:09:31;;;;;;;9.38;8.10;;;27.60;99.90;;;;;;5028371;28;20248;-81
2022/05/18 06:11:58;;;;;;;9.13;6.90;;;28.10;99.90;;;;;;5023804;28;20206;-80
2022/05/18 06:14:25;;;;;;;9.45;6.80;;;28.40;99.90;;;;;;5024454;28;20233;-83
2022/05/18 06:16:52;;;;;;;8.82;6.72;;;28.70;99.90;;;;;;5022459;28;20297;-80
2022/05/18 06:19:19;;;;;;;7.95;5.82;;;29.10;99.90;;;;;;5024246;28;20206;-81
2022/05/18 06:21:49;;;;;;;8.25;6.45;;;29.40;99.90;;;;;;5027949;28;20209;-82
2022/05/18 06:24:18;;;;;;;9.98;6.55;;;29.60;99.90;;;;;;5021034;28;20217;-80
2022/05/18 06:26:45;;;;;;;7.90;6.10;;;29.80;99.90;;;;;;5021338;28;20202;-81
2022/05/18 06:29:12;;;;;;;8.10;6.25;;;30.10;99.90;;;;;;5020966;28;20206;-81
2022/05/18 06:31:39;;;;;;;8.38;5.57;;;30.30;99.90;;;;;;5017498;28;20207;-81
2022/05/18 06:34:06;;;;;;;9.45;5.88;;;30.70;99.90;;;;;;5024034;28;20579;-83
2022/05/18 06:36:34;;;;;;;8.48;5.50;;;30.90;99.90;;;;;;5032897;28;20558;-81
2022/05/18 06:39:02;;;;;;;9.57;5.47;;;31.10;99.90;;;;;;5022450;28;20650;-81
2022/05/18 06:41:34;;;;;;;8.63;5.88;;;31.30;99.90;;;;;;5023483;28;20596;-82
2022/05/18 06:44:04;;;;;;;7.22;5.35;;;31.50;99.30;;;;;;5019897;28;20210;-82
2022/05/18 06:46:34;;;;;;;8.18;5.13;;;31.70;98.60;;;;;;5021653;28;20207;-82
2022/05/18 06:49:03;;;;;;;8.25;5.30;;;32.00;98.10;;;;;;5024005;28;20242;-82
2022/05/18 06:51:33;;;;;;;6.93;5.63;;;32.20;97.20;;;;;;5019665;28;20233;-82
2022/05/18 06:54:00;;;;;;;7.50;4.70;;;32.70;96.60;;;;;;5024504;28;20225;-82
2022/05/18 06:56:33;;;;;;;6.40;4.70;;;32.80;96.20;;;;;;5021672;28;20212;-81
2022/05/18 06:59:00;;;;;;;5.90;4.07;;;33.30;95.30;;;;;;5026488;28;20297;-80
2022/05/18 07:01:28;;;;;;;5.00;4.47;;;33.50;94.30;;;;;;5016131;28;20626;-82
2022/05/18 07:03:57;;;;;;;5.28;4.15;;;34.00;93.40;;;;;;5024744;28;20212;-80
2022/05/18 07:06:30;;;;;;;4.40;3.50;;;33.90;91.60;;;;;;5019077;28;20205;-82
2022/05/18 07:08:57;;;;;;;4.65;3.45;;;33.40;90.80;;;;;;5027538;28;20209;-81
2022/05/18 07:11:25;;;;;;;5.00;3.70;;;32.70;90.80;;;;;;5026126;28;20213;-80
2022/05/18 07:13:55;;;;;;;6.00;3.47;;;31.90;90.80;;;;;;5027498;28;20689;-82
2022/05/18 07:16:23;;;;;;;5.30;3.67;;;31.20;91.20;;;;;;5025099;28;20234;-80
2022/05/18 07:18:51;;;;;;;9.85;3.67;;;30.50;91.80;;;;;;5023922;28;20206;-82
2022/05/18 07:21:19;;;;;;;5.38;3.53;;;30.00;92.20;;;;;;5026265;28;20210;-81
2022/05/18 07:23:47;;;;;;;9.10;3.70;;;29.50;92.70;;;;;;5022959;28;20218;-80
2022/05/18 07:26:14;;;;;;;6.90;3.60;;;29.00;93.20;;;;;;5024872;28;20205;-80
2022/05/18 07:28:46;;;;;;;6.75;3.97;;;28.70;93.50;;;;;;5024852;28;20216;-80
2022/05/18 07:31:13;;;;;;;6.20;3.50;;;;;;;;;;5017292;28;20663;-80
2022/05/18 07:34:00;;;;;;;8.18;4.20;;;28.30;93.70;;;;;;5019807;28;20230;-80
2022/05/18 07:36:28;;;;;;;6.22;3.90;;;28.20;94.40;;;;;;5025625;28;20202;-80
2022/05/18 07:38:55;;;;;;;4.50;3.88;;;28.10;94.80;;;;;;5024328;28;20206;-81
2022/05/18 07:41:22;;;;;;;7.72;4.22;;;28.20;95.10;;;;;;5018209;28;20265;-80
2022/05/18 07:43:49;;;;;;;6.82;4.32;;;28.60;95.00;;;;;;5023966;28;20209;-81
2022/05/18 07:46:15;;;;;;;5.82;3.95;;;28.70;94.50;;;;;;5027244;28;20209;-80
2022/05/18 07:48:43;;;;;;;4.45;3.95;;;28.50;95.00;;;;;;5023810;28;20214;-80
2022/05/18 07:51:10;;;;;;;8.30;4.45;;;28.20;95.00;;;;;;5018095;28;20539;-79
2022/05/18 07:53:37;;;;;;;8.63;5.97;;;28.00;95.30;;;;;;5023553;28;20230;-80
2022/05/18 07:56:09;;;;;;;7.32;4.70;;;27.80;95.10;;;;;;5020750;28;20256;-81
2022/05/18 07:58:36;;;;;;;6.60;4.78;;;27.70;95.50;;;;;;5018508;28;20198;-80
2022/05/18 08:01:02;;;;;;;14.85;6.30;;;28.30;95.50;;;;;;5019444;28;20207;-81
2022/05/18 08:03:29;;;;;;;8.57;5.90;;;29.00;94.80;;;;;;5021443;28;20202;-81
2022/05/18 08:05:56;;;;;;;10.07;7.20;;;29.60;94.30;;;;;;5024249;28;20218;-81
2022/05/18 08:08:23;;;;;;;12.57;8.43;;;30.20;93.60;;;;;;5023432;28;20252;-80
2022/05/18 08:16:21;;;;;;;9.00;7.32;;;30.70;92.00;;;;;;5024869;28;20738;-81
2022/05/18 08:18:49;;;;;;;9.90;7.57;;;30.90;92.00;;;;;;5025970;28;20214;-81
2022/05/18 08:21:17;;;;;;;8.60;7.43;;;31.20;92.00;;;;;;5023386;28;20689;-81
2022/05/18 08:23:45;;;;;;;10.52;8.00;;;31.50;91.60;;;;;;5018400;28;20216;-82
2022/05/18 08:26:12;;;;;;;11.80;8.27;;;31.60;90.90;;;;;;5016797;28;20241;-82
2022/05/18 08:28:39;;;;;;;9.82;7.35;;;31.60;91.10;;;;;;5022835;28;20216;-79
2022/05/18 08:31:06;;;;;;;11.13;9.23;;;31.70;91.20;;;;;;5018335;28;20230;-81
2022/05/18 08:33:34;;;;;;;11.80;8.63;;;31.80;90.80;;;;;;5021703;28;20711;-82
2022/05/18 08:36:06;;;;;;;12.40;8.60;;;31.80;90.60;;;;;;5024223;28;20618;-81
2022/05/18 08:38:35;;;;;;;10.60;8.63;;;32.00;90.50;;;;;;5016883;28;20321;-80
2022/05/18 08:41:13;;;;;;;9.45;8.27;;;32.10;90.40;;;;;;5023144;28;20234;-80
2022/05/18 08:43:45;;;;;;;9.93;7.38;;;32.20;90.10;;;;;;5013716;28;20213;-79
2022/05/18 08:46:44;;;;;;;9.25;7.15;;;31.90;90.10;;;;;;5025132;28;20241;-80
2022/05/18 08:49:13;;;;;;;11.45;8.00;;;32.00;90.30;;;;;;5023329;28;20340;-79
2022/05/18 08:52:09;;;;;;;8.57;7.63;;;32.00;90.10;;;;;;5025533;28;20202;-78
2022/05/18 08:54:54;;;;;;;9.15;7.40;;;32.20;90.10;;;;;;5024803;28;20242;-81
2022/05/18 08:57:28;;;;;;;8.65;7.38;;;32.20;90.30;;;;;;5013546;28;20276;-80
2022/05/18 08:59:58;;;;;;;10.73;8.25;;;32.50;90.20;;;;;;5026470;28;20797;-81
2022/05/18 09:02:32;;;;;;;12.27;8.57;;;32.60;89.60;;;;;;5022536;28;20214;-80
2022/05/18 09:05:07;;;;;;;9.88;7.60;;;32.60;89.20;;;;;;5024502;28;20202;-80
2022/05/18 09:08:13;;;;;;;11.02;8.23;;;32.70;89.30;;;;;;5025573;28;20288;-81
2022/05/18 09:10:54;;;;;;;11.05;7.55;;;32.50;89.40;;;;;;5025083;28;20215;-80
2022/05/18 09:13:21;;;;;;;11.68;8.75;;;32.30;89.70;;;;;;5030088;28;20654;-79
2022/05/18 09:15:59;;;;;;;10.95;9.00;;;32.10;89.20;;;;;;5029166;28;20241;-80
2022/05/18 09:18:46;;;;;;;12.75;9.27;;;32.10;89.20;;;;;;5026350;28;20198;-81
2022/05/18 09:21:19;;;;;;;11.00;8.45;;;32.10;89.30;;;;;;5029211;28;20216;-78
2022/05/18 09:23:55;;;;;;;9.70;8.02;;;32.20;89.80;;;;;;5039115;28;20263;-77
2022/05/18 09:27:04;;;;;;;12.75;7.70;;;32.20;90.00;;;;;;5033935;28;20267;-79
2022/05/18 09:29:46;;;;;;;11.20;9.05;;;32.30;89.60;;;;;;5037377;28;20205;-78
2022/05/18 09:32:24;;;;;;;13.68;9.35;;;32.30;89.90;;;;;;5039635;28;20347;-78
2022/05/18 09:35:35;;;;;;;10.95;8.35;;;32.40;89.60;;;;;;5035029;28;20221;-78
2022/05/18 09:38:10;;;;;;;13.75;7.75;;;32.60;90.00;;;;;;5034200;28;20790;-78
2022/05/18 09:40:42;;;;;;;11.82;7.93;;;32.50;88.90;;;;;;5033949;28;20231;-80
2022/05/18 09:43:17;;;;;;;8.45;6.93;;;32.30;89.30;;;;;;5039582;28;20208;-78
2022/05/18 09:45:47;;;;;;;10.95;6.90;;;32.10;89.10;;;;;;5033411;28;20353;-79
2022/05/18 09:48:29;;;;;;;7.20;4.93;;;32.00;89.50;;;;;;5024593;28;20305;-79
2022/05/18 09:50:56;;;;;;;6.45;5.55;;;31.80;88.70;;;;;;5024980;28;20268;-80
2022/05/18 09:53:23;;;;;;;9.00;5.47;;;31.60;88.80;;;;;;5026885;28;20205;-80
2022/05/18 09:55:51;;;;;;;6.68;5.72;;;31.60;90.10;;;;;;5023160;28;20725;-79
2022/05/18 09:58:28;;;;;;;9.45;6.68;;;31.50;90.00;;;;;;5018548;28;20203;-79
2022/05/18 10:09:51;;;;;;;6.65;5.55;;;31.10;90.20;;;;;;4981804;28;20715;-77
2022/05/18 10:12:30;;;;;;;6.32;5.50;;;31.30;90.50;;;;;;4982513;28;20610;-80
2022/05/18 10:15:03;;;;;;;7.50;4.63;;;31.40;90.20;;;;;;5002046;28;20239;-80
2022/05/18 10:17:36;;;;;;;7.45;5.30;;;31.30;90.00;;;;;;5016627;28;20198;-79
2022/05/18 10:20:19;;;;;;;6.85;4.88;;;31.40;90.00;;;;;;5019431;28;20214;-78
2022/05/18 10:22:49;;;;;;;8.18;4.30;;;31.10;90.00;;;;;;5022842;28;20650;-81
2022/05/18 10:25:47;;;;;;;6.82;5.40;;;31.20;89.80;;;;;;5018368;28;20332;-80
2022/05/18 10:28:23;;;;;;;9.00;5.10;;;31.30;89.60;;;;;;5020010;28;20211;-80
2022/05/18 10:31:05;;;;;;;8.23;4.95;;;31.30;89.10;;;;;;5019331;28;20213;-81
2022/05/18 10:33:39;;;;;;;7.97;5.28;;;31.50;89.00;;;;;;5016222;28;20264;-80
2022/05/18 10:36:23;;;;;;;7.97;5.80;;;31.70;89.90;;;;;;5019980;28;20352;-80
2022/05/18 10:38:54;;;;;;;7.88;5.40;;;31.80;89.30;;;;;;5015016;28;20220;-80
2022/05/18 10:41:27;;;;;;;8.00;5.45;;;31.90;88.90;;;;;;5016802;28;20202;-81
2022/05/18 10:43:53;;;;;;;8.20;5.63;;;32.60;89.30;;;;;;5016670;28;20210;-80
2022/05/18 10:46:31;;;;;;;6.65;5.85;;;32.30;88.90;;;;;;5020849;28;20226;-80
2022/05/18 10:49:20;;;;;;;9.02;5.40;;;32.40;87.80;;;;;;5022375;28;20216;-79
2022/05/18 10:51:49;;;;;;;9.70;6.05;;;32.50;87.30;;;;;;5019630;28;20212;-80
2022/05/18 10:54:26;;;;;;;9.77;5.60;;;32.70;88.10;;;;;;5016614;28;20321;-81
2022/05/18 10:57:09;;;;;;;10.07;7.45;;;32.40;87.20;;;;;;5015873;28;20224;-81
2022/05/18 10:59:39;;;;;;;7.35;5.28;;;32.10;87.20;;;;;;5022201;28;20202;-80
2022/05/18 11:02:16;;;;;;;9.07;7.20;;;32.20;87.60;;;;;;5019384;28;20202;-81
2022/05/18 11:05:11;;;;;;;8.98;6.88;;;32.40;87.90;;;;;;5019159;28;20249;-79
2022/05/18 11:07:38;;;;;;;9.68;6.72;;;32.20;88.20;;;;;;5013159;28;20206;-80
2022/05/18 11:10:06;;;;;;;9.45;6.90;;;32.50;89.50;;;;;;5024124;28;20321;-81
2022/05/18 11:13:03;;;;;;;10.55;6.28;;;32.40;88.20;;;;;;5018381;28;20207;-79
2022/05/18 11:15:49;;;;;;;10.57;6.07;;;32.30;86.70;;;;;;5019823;28;20238;-81
2022/05/18 11:18:42;;;;;;;11.32;6.15;;;32.80;88.90;;;;;;5020231;28;20206;-80
2022/05/18 11:21:22;;;;;;;8.00;5.03;;;32.00;88.00;;;;;;5023408;28;20658;-80
2022/05/18 11:23:55;;;;;;;6.45;5.65;;;32.00;88.30;;;;;;5016433;28;20654;-82
2022/05/18 11:26:34;;;;;;;5.88;4.68;;;32.00;87.40;;;;;;5016040;28;20209;-80
2022/05/18 11:29:07;;;;;;;5.90;4.35;;;32.10;87.60;;;;;;5014979;28;20210;-80
2022/05/18 11:31:52;;;;;;;4.90;3.65;;;31.90;88.00;;;;;;5030772;28;20557;-80
2022/05/18 11:34:43;;;;;;;7.22;5.32;;;32.20;87.10;;;;;;5022648;28;20641;-81
2022/05/18 11:37:22;;;;;;;12.35;6.97;;;32.30;86.80;;;;;;5021025;28;20224;-79
2022/05/18 11:40:14;;;;;;;10.43;6.72;;;32.30;88.60;;;;;;5017493;28;20287;-80
2022/05/18 11:42:55;;;;;;;5.90;4.88;;;32.20;88.50;;;;;;5021067;28;20206;-79
2022/05/18 11:45:54;;;;;;;5.85;4.45;;;32.30;85.60;;;;;;5015724;28;20213;-79
2022/05/18 11:48:39;;;;;;;6.05;4.05;;;32.20;85.60;;;;;;5035141;28;20232;-79
2022/05/18 11:51:33;;;;;;;5.88;3.88;;;32.00;86.00;;;;;;5015548;28;20657;-80
2022/05/18 11:54:29;;;;;;;6.55;4.20;;;32.10;85.70;;;;;;5024361;28;20660;-79
2022/05/18 11:57:34;;;;;;;8.48;4.53;;;31.60;85.20;;;;;;5012995;28;20659;-79
2022/05/18 12:00:14;;;;;;;6.97;4.03;;;31.40;84.00;;;;;;5019568;28;20691;-79
2022/05/18 12:02:59;;;;;;;8.43;4.93;;;31.10;85.10;;;;;;5019371;28;20620;-79
2022/05/18 12:05:40;;;;;;;8.95;4.90;;;30.90;85.80;;;;;;5026272;28;20209;-81
2022/05/18 12:08:39;;;;;;;10.30;4.95;;;31.00;86.30;;;;;;5019247;28;20206;-80
2022/05/18 12:11:28;;;;;;;5.93;4.32;;;31.10;85.80;;;;;;5014695;28;20284;-82
2022/05/18 12:14:09;;;;;;;5.65;3.95;;;31.30;86.00;;;;;;5019006;28;20252;-80
2022/05/18 12:16:41;;;;;;;6.07;3.97;;;31.60;85.70;;;;;;5022358;28;20239;-77
2022/05/18 12:19:21;;;;;;;5.72;4.07;;;31.70;86.00;;;;;;5026640;28;20469;-78
2022/05/18 12:22:02;;;;;;;9.73;5.00;;;31.80;86.10;;;;;;5024880;28;20211;-77
2022/05/18 12:24:29;;;;;;;6.20;4.70;;;31.70;86.50;;;;;;5021941;28;20229;-79
2022/05/18 12:26:57;;;;;;;6.47;4.72;;;31.70;87.10;;;;;;5025428;28;20228;-78
2022/05/18 12:29:26;;;;;;;10.40;5.15;;;31.80;87.40;;;;;;5018615;28;20218;-78
2022/05/18 12:31:56;;;;;;;10.52;4.97;;;31.70;87.40;;;;;;5023560;28;20219;-79
2022/05/18 12:34:41;;;;;;;8.43;5.90;;;31.60;88.60;;;;;;5022667;28;20229;-78
2022/05/18 12:37:14;;;;;;;5.82;4.07;;;31.60;90.30;;;;;;5023130;28;20299;-78
2022/05/18 12:39:43;;;;;;;7.43;5.30;;;31.50;90.20;;;;;;5021635;28;20221;-79
2022/05/18 12:42:20;;;;;;;9.25;6.10;;;31.60;90.10;;;;;;5023363;28;20205;-80
2022/05/18 12:45:14;;;;;;;11.68;7.85;;;31.40;90.50;;;;;;5039849;28;20210;-79
2022/05/18 12:47:52;;;;;;;15.27;7.88;;;31.20;91.60;;;;;;5022139;28;20216;-79
2022/05/18 12:50:35;;;;;;;8.82;7.90;;;31.60;92.60;;;;;;5030265;28;20326;-78
2022/05/18 12:53:13;;;;;;;8.98;6.85;;;31.00;92.80;;;;;;5027497;28;20246;-76
2022/05/18 12:55:39;;;;;;;12.13;8.43;;;31.20;93.30;;;;;;5019502;28;20230;-78
2022/05/18 12:58:37;;;;;;;12.20;8.43;;;30.80;93.60;;;;;;5022712;28;20214;-79
2022/05/18 13:01:06;;;;;;;10.30;6.40;;;30.80;93.80;;;;;;5018466;28;20264;-80
2022/05/18 13:03:55;;;;;;;10.63;6.35;;;30.80;94.50;;;;;;5023240;28;20271;-78
2022/05/18 13:06:29;;;;;;;11.13;8.43;;;30.70;94.60;;;;;;5025517;28;20210;-80
2022/05/18 13:08:58;;;;;;;18.20;9.77;;;30.60;95.20;;;;;;5025804;28;20206;-80
2022/05/18 13:11:32;;;;;;;16.95;9.88;;;30.40;95.90;;;;;;5025800;28;20597;-80
2022/05/18 13:14:36;;;;;;;14.57;9.55;;;30.00;97.40;;;;;;5022359;28;20253;-78
2022/05/18 13:17:04;;;;;;;15.43;9.32;;;29.70;98.40;;;;;;5027502;28;20205;-80
2022/05/18 13:19:34;;;;;;;16.65;10.43;;;29.50;99.90;;;;;;5029842;28;20205;-78
2022/05/18 13:22:25;;;;;;;15.48;10.15;;;29.40;99.90;;;;;;5028406;28;20206;-79